sensor_id;sensor_type;location;lat;lon;timestamp;P1;durP1;ratioP1;P2;durP2;ratioP2
52984;SDS011;40499;47.830;19.026;2022-09-09T00:01:20;0.40;;;0.20;;
52984;SDS011;40499;47.830;19.026;2022-09-09T00:07:00;0.20;;;0.10;;
52984;SDS011;40499;47.830;19.026;2022-09-09T00:12:25;0.00;;;0.00;;
52984;SDS011;40499;47.830;19.026;2022-09-09T00:15:11;0.28;;;0.10;;
52984;SDS011;40499;47.830;19.026;2022-09-09T00:17:50;5.78;;;0.20;;
52984;SDS011;40499;47.830;19.026;2022-09-09T00:23:00;0.17;;;0.10;;
52984;SDS011;40499;47.830;19.026;2022-09-09T00:25:37;1.85;;;0.10;;
52984;SDS011;40499;47.830;19.026;2022-09-09T00:28:13;0.85;;;0.10;;
52984;SDS011;40499;47.830;19.026;2022-09-09T00:30:43;0.25;;;0.15;;
52984;SDS011;40499;47.830;19.026;2022-09-09T00:33:12;0.32;;;0.20;;
52984;SDS011;40499;47.830;19.026;2022-09-09T00:36:01;0.15;;;0.10;;
52984;SDS011;40499;47.830;19.026;2022-09-09T00:38:36;0.77;;;0.38;;
52984;SDS011;40499;47.830;19.026;2022-09-09T00:41:09;0.32;;;0.10;;
52984;SDS011;40499;47.830;19.026;2022-09-09T00:43:41;0.55;;;0.20;;
52984;SDS011;40499;47.830;19.026;2022-09-09T00:57:28;0.38;;;0.20;;
52984;SDS011;40499;47.830;19.026;2022-09-09T01:02:27;0.43;;;0.20;;
52984;SDS011;40499;47.830;19.026;2022-09-09T01:04:58;0.50;;;0.13;;
52984;SDS011;40499;47.830;19.026;2022-09-09T01:07:30;0.97;;;0.20;;
52984;SDS011;40499;47.830;19.026;2022-09-09T01:09:57;0.55;;;0.40;;
52984;SDS011;40499;47.830;19.026;2022-09-09T01:15:10;0.57;;;0.10;;
52984;SDS011;40499;47.830;19.026;2022-09-09T01:26:09;0.40;;;0.13;;
52984;SDS011;40499;47.830;19.026;2022-09-09T01:28:51;0.30;;;0.10;;
52984;SDS011;40499;47.830;19.026;2022-09-09T01:31:26;5.75;;;1.27;;
52984;SDS011;40499;47.830;19.026;2022-09-09T01:33:55;0.88;;;0.20;;
52984;SDS011;40499;47.830;19.026;2022-09-09T01:38:54;0.40;;;0.20;;
52984;SDS011;40499;47.830;19.026;2022-09-09T01:41:20;1.23;;;0.10;;
52984;SDS011;40499;47.830;19.026;2022-09-09T01:43:46;0.75;;;0.25;;
52984;SDS011;40499;47.830;19.026;2022-09-09T01:46:12;0.13;;;0.10;;
52984;SDS011;40499;47.830;19.026;2022-09-09T01:48:38;0.73;;;0.17;;
52984;SDS011;40499;47.830;19.026;2022-09-09T01:51:07;0.40;;;0.17;;
52984;SDS011;40499;47.830;19.026;2022-09-09T01:53:34;0.40;;;0.13;;
52984;SDS011;40499;47.830;19.026;2022-09-09T01:56:21;0.25;;;0.10;;
52984;SDS011;40499;47.830;19.026;2022-09-09T02:07:03;0.70;;;0.30;;
52984;SDS011;40499;47.830;19.026;2022-09-09T02:09:39;0.40;;;0.10;;
52984;SDS011;40499;47.830;19.026;2022-09-09T02:12:10;1.83;;;0.73;;
52984;SDS011;40499;47.830;19.026;2022-09-09T02:14:41;0.43;;;0.10;;
52984;SDS011;40499;47.830;19.026;2022-09-09T02:17:11;0.40;;;0.20;;
52984;SDS011;40499;47.830;19.026;2022-09-09T02:19:45;0.60;;;0.10;;
52984;SDS011;40499;47.830;19.026;2022-09-09T02:22:21;0.57;;;0.10;;
52984;SDS011;40499;47.830;19.026;2022-09-09T02:24:49;0.30;;;0.10;;
52984;SDS011;40499;47.830;19.026;2022-09-09T02:27:19;1.70;;;0.20;;
52984;SDS011;40499;47.830;19.026;2022-09-09T02:29:46;1.65;;;0.63;;
52984;SDS011;40499;47.830;19.026;2022-09-09T02:32:16;0.82;;;0.10;;
52984;SDS011;40499;47.830;19.026;2022-09-09T02:34:47;0.25;;;0.15;;
52984;SDS011;40499;47.830;19.026;2022-09-09T02:37:17;0.47;;;0.25;;
52984;SDS011;40499;47.830;19.026;2022-09-09T02:39:46;0.22;;;0.13;;
52984;SDS011;40499;47.830;19.026;2022-09-09T02:42:11;0.22;;;0.10;;
52984;SDS011;40499;47.830;19.026;2022-09-09T02:44:39;0.30;;;0.20;;
52984;SDS011;40499;47.830;19.026;2022-09-09T02:58:10;0.40;;;0.17;;
52984;SDS011;40499;47.830;19.026;2022-09-09T03:00:42;2.95;;;0.10;;
52984;SDS011;40499;47.830;19.026;2022-09-09T03:03:08;0.15;;;0.10;;
52984;SDS011;40499;47.830;19.026;2022-09-09T03:05:36;0.30;;;0.20;;
52984;SDS011;40499;47.830;19.026;2022-09-09T03:08:02;0.70;;;0.30;;
52984;SDS011;40499;47.830;19.026;2022-09-09T03:10:28;0.50;;;0.20;;
52984;SDS011;40499;47.830;19.026;2022-09-09T03:12:54;3.30;;;0.20;;
52984;SDS011;40499;47.830;19.026;2022-09-09T03:15:20;0.38;;;0.13;;
52984;SDS011;40499;47.830;19.026;2022-09-09T03:17:45;1.75;;;0.30;;
52984;SDS011;40499;47.830;19.026;2022-09-09T03:20:12;1.08;;;0.20;;
52984;SDS011;40499;47.830;19.026;2022-09-09T03:22:37;0.38;;;0.20;;
52984;SDS011;40499;47.830;19.026;2022-09-09T03:25:03;0.38;;;0.10;;
52984;SDS011;40499;47.830;19.026;2022-09-09T03:27:29;0.28;;;0.10;;
52984;SDS011;40499;47.830;19.026;2022-09-09T03:29:55;0.50;;;0.20;;
52984;SDS011;40499;47.830;19.026;2022-09-09T03:32:20;0.38;;;0.20;;
52984;SDS011;40499;47.830;19.026;2022-09-09T03:34:47;2.45;;;0.30;;
52984;SDS011;40499;47.830;19.026;2022-09-09T03:37:15;2.42;;;0.30;;
52984;SDS011;40499;47.830;19.026;2022-09-09T03:39:42;0.55;;;0.20;;
52984;SDS011;40499;47.830;19.026;2022-09-09T03:42:08;0.50;;;0.20;;
52984;SDS011;40499;47.830;19.026;2022-09-09T03:44:33;0.35;;;0.20;;
52984;SDS011;40499;47.830;19.026;2022-09-09T03:46:58;0.32;;;0.10;;
52984;SDS011;40499;47.830;19.026;2022-09-09T03:49:25;0.40;;;0.13;;
52984;SDS011;40499;47.830;19.026;2022-09-09T03:51:53;0.88;;;0.28;;
52984;SDS011;40499;47.830;19.026;2022-09-09T03:54:19;0.45;;;0.22;;
52984;SDS011;40499;47.830;19.026;2022-09-09T03:56:45;0.50;;;0.30;;
52984;SDS011;40499;47.830;19.026;2022-09-09T03:59:10;1.13;;;0.40;;
52984;SDS011;40499;47.830;19.026;2022-09-09T04:01:36;0.80;;;0.50;;
52984;SDS011;40499;47.830;19.026;2022-09-09T04:04:01;5.57;;;1.13;;
52984;SDS011;40499;47.830;19.026;2022-09-09T04:06:27;0.55;;;0.35;;
52984;SDS011;40499;47.830;19.026;2022-09-09T04:08:53;0.85;;;0.30;;
52984;SDS011;40499;47.830;19.026;2022-09-09T04:11:18;0.47;;;0.32;;
52984;SDS011;40499;47.830;19.026;2022-09-09T04:13:44;0.55;;;0.32;;
52984;SDS011;40499;47.830;19.026;2022-09-09T04:16:10;0.55;;;0.30;;
52984;SDS011;40499;47.830;19.026;2022-09-09T04:18:40;0.52;;;0.32;;
52984;SDS011;40499;47.830;19.026;2022-09-09T04:21:05;0.93;;;0.40;;
52984;SDS011;40499;47.830;19.026;2022-09-09T04:23:32;1.63;;;0.98;;
52984;SDS011;40499;47.830;19.026;2022-09-09T04:25:59;1.58;;;0.40;;
52984;SDS011;40499;47.830;19.026;2022-09-09T04:28:26;0.60;;;0.30;;
52984;SDS011;40499;47.830;19.026;2022-09-09T04:30:54;0.60;;;0.50;;
52984;SDS011;40499;47.830;19.026;2022-09-09T04:33:19;0.73;;;0.30;;
52984;SDS011;40499;47.830;19.026;2022-09-09T04:35:46;0.63;;;0.35;;
52984;SDS011;40499;47.830;19.026;2022-09-09T04:38:15;1.38;;;0.50;;
52984;SDS011;40499;47.830;19.026;2022-09-09T04:40:42;0.85;;;0.40;;
52984;SDS011;40499;47.830;19.026;2022-09-09T04:43:09;0.85;;;0.47;;
52984;SDS011;40499;47.830;19.026;2022-09-09T04:45:34;0.57;;;0.32;;
52984;SDS011;40499;47.830;19.026;2022-09-09T04:48:00;1.40;;;0.40;;
52984;SDS011;40499;47.830;19.026;2022-09-09T04:50:26;0.70;;;0.40;;
52984;SDS011;40499;47.830;19.026;2022-09-09T04:52:55;0.98;;;0.45;;
52984;SDS011;40499;47.830;19.026;2022-09-09T04:55:21;0.80;;;0.47;;
52984;SDS011;40499;47.830;19.026;2022-09-09T04:57:46;2.28;;;0.80;;
52984;SDS011;40499;47.830;19.026;2022-09-09T05:00:12;3.38;;;1.23;;
52984;SDS011;40499;47.830;19.026;2022-09-09T05:02:39;0.68;;;0.20;;
52984;SDS011;40499;47.830;19.026;2022-09-09T05:05:05;1.00;;;0.60;;
52984;SDS011;40499;47.830;19.026;2022-09-09T05:07:31;0.70;;;0.40;;
52984;SDS011;40499;47.830;19.026;2022-09-09T05:09:57;0.75;;;0.30;;
52984;SDS011;40499;47.830;19.026;2022-09-09T05:12:22;0.60;;;0.35;;
52984;SDS011;40499;47.830;19.026;2022-09-09T05:14:51;1.55;;;1.10;;
52984;SDS011;40499;47.830;19.026;2022-09-09T05:17:20;0.70;;;0.40;;
52984;SDS011;40499;47.830;19.026;2022-09-09T05:19:51;0.73;;;0.40;;
52984;SDS011;40499;47.830;19.026;2022-09-09T05:22:20;0.88;;;0.40;;
52984;SDS011;40499;47.830;19.026;2022-09-09T05:24:46;0.55;;;0.32;;
52984;SDS011;40499;47.830;19.026;2022-09-09T05:27:11;0.70;;;0.32;;
52984;SDS011;40499;47.830;19.026;2022-09-09T05:29:37;0.73;;;0.30;;
52984;SDS011;40499;47.830;19.026;2022-09-09T05:32:03;0.73;;;0.28;;
52984;SDS011;40499;47.830;19.026;2022-09-09T05:34:29;0.50;;;0.22;;
52984;SDS011;40499;47.830;19.026;2022-09-09T05:36:54;0.57;;;0.30;;
52984;SDS011;40499;47.830;19.026;2022-09-09T05:39:20;1.35;;;0.30;;
52984;SDS011;40499;47.830;19.026;2022-09-09T05:41:45;7.95;;;0.40;;
52984;SDS011;40499;47.830;19.026;2022-09-09T05:44:11;0.80;;;0.30;;
52984;SDS011;40499;47.830;19.026;2022-09-09T05:46:36;0.77;;;0.28;;
52984;SDS011;40499;47.830;19.026;2022-09-09T05:49:02;0.25;;;0.20;;
52984;SDS011;40499;47.830;19.026;2022-09-09T05:51:30;0.40;;;0.30;;
52984;SDS011;40499;47.830;19.026;2022-09-09T05:53:55;0.60;;;0.20;;
52984;SDS011;40499;47.830;19.026;2022-09-09T05:56:25;0.30;;;0.20;;
52984;SDS011;40499;47.830;19.026;2022-09-09T05:58:52;0.70;;;0.43;;
52984;SDS011;40499;47.830;19.026;2022-09-09T06:03:48;1.02;;;0.43;;
52984;SDS011;40499;47.830;19.026;2022-09-09T06:06:19;1.55;;;0.45;;
52984;SDS011;40499;47.830;19.026;2022-09-09T06:08:59;1.52;;;0.65;;
52984;SDS011;40499;47.830;19.026;2022-09-09T06:11:38;3.38;;;0.45;;
52984;SDS011;40499;47.830;19.026;2022-09-09T06:14:08;1.02;;;0.40;;
52984;SDS011;40499;47.830;19.026;2022-09-09T06:20:29;1.40;;;0.40;;
52984;SDS011;40499;47.830;19.026;2022-09-09T06:22:57;1.48;;;0.70;;
52984;SDS011;40499;47.830;19.026;2022-09-09T06:25:23;0.80;;;0.50;;
52984;SDS011;40499;47.830;19.026;2022-09-09T06:27:49;1.27;;;0.50;;
52984;SDS011;40499;47.830;19.026;2022-09-09T06:30:14;1.23;;;0.60;;
52984;SDS011;40499;47.830;19.026;2022-09-09T06:32:42;1.42;;;0.50;;
52984;SDS011;40499;47.830;19.026;2022-09-09T06:35:07;0.65;;;0.40;;
52984;SDS011;40499;47.830;19.026;2022-09-09T06:37:33;0.60;;;0.30;;
52984;SDS011;40499;47.830;19.026;2022-09-09T06:39:58;0.80;;;0.40;;
52984;SDS011;40499;47.830;19.026;2022-09-09T06:42:24;0.70;;;0.45;;
52984;SDS011;40499;47.830;19.026;2022-09-09T06:44:49;0.90;;;0.55;;
52984;SDS011;40499;47.830;19.026;2022-09-09T06:47:15;0.70;;;0.50;;
52984;SDS011;40499;47.830;19.026;2022-09-09T06:49:40;1.10;;;0.38;;
52984;SDS011;40499;47.830;19.026;2022-09-09T06:52:05;1.17;;;0.60;;
52984;SDS011;40499;47.830;19.026;2022-09-09T06:54:31;0.77;;;0.30;;
52984;SDS011;40499;47.830;19.026;2022-09-09T06:57:00;0.85;;;0.40;;
52984;SDS011;40499;47.830;19.026;2022-09-09T06:59:26;0.80;;;0.40;;
52984;SDS011;40499;47.830;19.026;2022-09-09T07:01:55;0.82;;;0.47;;
52984;SDS011;40499;47.830;19.026;2022-09-09T07:14:45;1.45;;;0.63;;
52984;SDS011;40499;47.830;19.026;2022-09-09T07:17:11;0.73;;;0.50;;
52984;SDS011;40499;47.830;19.026;2022-09-09T07:19:36;0.60;;;0.40;;
52984;SDS011;40499;47.830;19.026;2022-09-09T07:22:02;0.77;;;0.40;;
52984;SDS011;40499;47.830;19.026;2022-09-09T07:24:28;0.73;;;0.40;;
52984;SDS011;40499;47.830;19.026;2022-09-09T07:26:55;1.48;;;0.50;;
52984;SDS011;40499;47.830;19.026;2022-09-09T07:29:20;1.20;;;0.70;;
52984;SDS011;40499;47.830;19.026;2022-09-09T07:31:45;0.40;;;0.28;;
52984;SDS011;40499;47.830;19.026;2022-09-09T07:34:11;1.33;;;0.43;;
52984;SDS011;40499;47.830;19.026;2022-09-09T07:36:37;2.65;;;0.57;;
52984;SDS011;40499;47.830;19.026;2022-09-09T07:39:05;0.80;;;0.30;;
52984;SDS011;40499;47.830;19.026;2022-09-09T07:43:59;0.50;;;0.30;;
52984;SDS011;40499;47.830;19.026;2022-09-09T07:46:28;0.40;;;0.25;;
52984;SDS011;40499;47.830;19.026;2022-09-09T07:48:54;1.23;;;0.28;;
52984;SDS011;40499;47.830;19.026;2022-09-09T07:51:23;1.20;;;0.35;;
52984;SDS011;40499;47.830;19.026;2022-09-09T07:53:54;3.08;;;0.63;;
52984;SDS011;40499;47.830;19.026;2022-09-09T07:56:22;0.73;;;0.30;;
52984;SDS011;40499;47.830;19.026;2022-09-09T07:58:50;0.50;;;0.20;;
52984;SDS011;40499;47.830;19.026;2022-09-09T08:01:21;1.25;;;0.30;;
52984;SDS011;40499;47.830;19.026;2022-09-09T08:06:20;0.98;;;0.45;;
52984;SDS011;40499;47.830;19.026;2022-09-09T08:08:49;0.77;;;0.32;;
52984;SDS011;40499;47.830;19.026;2022-09-09T08:11:15;7.00;;;0.60;;
52984;SDS011;40499;47.830;19.026;2022-09-09T08:13:42;0.70;;;0.22;;
52984;SDS011;40499;47.830;19.026;2022-09-09T08:16:19;0.65;;;0.32;;
52984;SDS011;40499;47.830;19.026;2022-09-09T08:18:49;2.72;;;0.38;;
52984;SDS011;40499;47.830;19.026;2022-09-09T08:21:20;0.40;;;0.20;;
52984;SDS011;40499;47.830;19.026;2022-09-09T08:23:51;0.45;;;0.20;;
52984;SDS011;40499;47.830;19.026;2022-09-09T08:26:19;0.20;;;0.20;;
52984;SDS011;40499;47.830;19.026;2022-09-09T08:28:49;0.47;;;0.20;;
52984;SDS011;40499;47.830;19.026;2022-09-09T08:31:21;0.85;;;0.20;;
52984;SDS011;40499;47.830;19.026;2022-09-09T08:34:05;0.90;;;0.30;;
52984;SDS011;40499;47.830;19.026;2022-09-09T08:36:33;1.05;;;0.20;;
52984;SDS011;40499;47.830;19.026;2022-09-09T08:39:03;0.50;;;0.30;;
52984;SDS011;40499;47.830;19.026;2022-09-09T08:57:54;0.40;;;0.20;;
52984;SDS011;40499;47.830;19.026;2022-09-09T09:00:22;0.32;;;0.28;;
52984;SDS011;40499;47.830;19.026;2022-09-09T09:06:01;1.20;;;0.30;;
52984;SDS011;40499;47.830;19.026;2022-09-09T09:11:10;0.70;;;0.35;;
52984;SDS011;40499;47.830;19.026;2022-09-09T09:13:39;0.32;;;0.20;;
52984;SDS011;40499;47.830;19.026;2022-09-09T09:16:17;0.45;;;0.17;;
52984;SDS011;40499;47.830;19.026;2022-09-09T09:18:50;0.30;;;0.20;;
52984;SDS011;40499;47.830;19.026;2022-09-09T09:23:53;0.65;;;0.30;;
52984;SDS011;40499;47.830;19.026;2022-09-09T09:26:22;0.28;;;0.20;;
52984;SDS011;40499;47.830;19.026;2022-09-09T09:28:52;0.25;;;0.20;;
52984;SDS011;40499;47.830;19.026;2022-09-09T09:31:21;0.38;;;0.20;;
52984;SDS011;40499;47.830;19.026;2022-09-09T09:33:52;0.50;;;0.22;;
52984;SDS011;40499;47.830;19.026;2022-09-09T09:36:19;0.20;;;0.20;;
52984;SDS011;40499;47.830;19.026;2022-09-09T09:38:53;1.17;;;0.30;;
52984;SDS011;40499;47.830;19.026;2022-09-09T09:41:30;2.13;;;0.22;;
52984;SDS011;40499;47.830;19.026;2022-09-09T09:43:56;0.60;;;0.30;;
52984;SDS011;40499;47.830;19.026;2022-09-09T09:46:22;0.80;;;0.20;;
52984;SDS011;40499;47.830;19.026;2022-09-09T09:49:23;0.45;;;0.20;;
52984;SDS011;40499;47.830;19.026;2022-09-09T09:51:42;0.70;;;0.30;;
52984;SDS011;40499;47.830;19.026;2022-09-09T09:56:44;0.20;;;0.13;;
52984;SDS011;40499;47.830;19.026;2022-09-09T09:59:20;0.77;;;0.20;;
52984;SDS011;40499;47.830;19.026;2022-09-09T10:04:45;0.50;;;0.28;;
52984;SDS011;40499;47.830;19.026;2022-09-09T10:07:18;0.73;;;0.40;;
52984;SDS011;40499;47.830;19.026;2022-09-09T10:09:46;0.52;;;0.28;;
52984;SDS011;40499;47.830;19.026;2022-09-09T10:20:49;0.30;;;0.10;;
52984;SDS011;40499;47.830;19.026;2022-09-09T10:23:38;1.17;;;0.10;;
52984;SDS011;40499;47.830;19.026;2022-09-09T10:43:07;0.50;;;0.20;;
52984;SDS011;40499;47.830;19.026;2022-09-09T10:48:57;0.45;;;0.10;;
52984;SDS011;40499;47.830;19.026;2022-09-09T10:51:33;0.43;;;0.20;;
52984;SDS011;40499;47.830;19.026;2022-09-09T10:56:58;0.50;;;0.20;;
52984;SDS011;40499;47.830;19.026;2022-09-09T10:59:29;1.55;;;0.28;;
52984;SDS011;40499;47.830;19.026;2022-09-09T11:02:10;0.38;;;0.22;;
52984;SDS011;40499;47.830;19.026;2022-09-09T11:04:48;0.30;;;0.10;;
52984;SDS011;40499;47.830;19.026;2022-09-09T11:07:23;0.28;;;0.10;;
52984;SDS011;40499;47.830;19.026;2022-09-09T11:10:05;0.30;;;0.13;;
52984;SDS011;40499;47.830;19.026;2022-09-09T11:12:43;0.08;;;0.00;;
52984;SDS011;40499;47.830;19.026;2022-09-09T11:15:17;1.17;;;0.20;;
52984;SDS011;40499;47.830;19.026;2022-09-09T11:17:46;3.03;;;0.15;;
52984;SDS011;40499;47.830;19.026;2022-09-09T11:20:15;0.20;;;0.10;;
52984;SDS011;40499;47.830;19.026;2022-09-09T11:22:46;0.20;;;0.10;;
52984;SDS011;40499;47.830;19.026;2022-09-09T11:28:18;0.17;;;0.00;;
52984;SDS011;40499;47.830;19.026;2022-09-09T11:33:31;0.65;;;0.17;;
52984;SDS011;40499;47.830;19.026;2022-09-09T11:44:44;0.13;;;0.00;;
52984;SDS011;40499;47.830;19.026;2022-09-09T11:55:38;0.10;;;0.10;;
52984;SDS011;40499;47.830;19.026;2022-09-09T11:58:06;0.20;;;0.10;;
52984;SDS011;40499;47.830;19.026;2022-09-09T12:00:44;0.63;;;0.10;;
52984;SDS011;40499;47.830;19.026;2022-09-09T12:09:06;1.75;;;0.22;;
52984;SDS011;40499;47.830;19.026;2022-09-09T12:11:39;0.35;;;0.10;;
52984;SDS011;40499;47.830;19.026;2022-09-09T12:14:18;0.20;;;0.10;;
52984;SDS011;40499;47.830;19.026;2022-09-09T12:16:46;0.20;;;0.13;;
52984;SDS011;40499;47.830;19.026;2022-09-09T12:19:16;1.00;;;0.10;;
52984;SDS011;40499;47.830;19.026;2022-09-09T12:24:38;0.17;;;0.00;;
52984;SDS011;40499;47.830;19.026;2022-09-09T12:27:20;0.28;;;0.10;;
52984;SDS011;40499;47.830;19.026;2022-09-09T12:30:08;0.45;;;0.10;;
52984;SDS011;40499;47.830;19.026;2022-09-09T12:32:40;0.20;;;0.10;;
52984;SDS011;40499;47.830;19.026;2022-09-09T12:35:12;0.10;;;0.10;;
52984;SDS011;40499;47.830;19.026;2022-09-09T12:37:55;0.17;;;0.10;;
52984;SDS011;40499;47.830;19.026;2022-09-09T12:40:24;0.10;;;0.10;;
52984;SDS011;40499;47.830;19.026;2022-09-09T12:42:52;0.68;;;0.10;;
52984;SDS011;40499;47.830;19.026;2022-09-09T12:50:26;0.20;;;0.00;;
52984;SDS011;40499;47.830;19.026;2022-09-09T12:52:55;0.75;;;0.10;;
52984;SDS011;40499;47.830;19.026;2022-09-09T12:55:24;0.75;;;0.10;;
52984;SDS011;40499;47.830;19.026;2022-09-09T12:57:55;0.00;;;0.00;;
52984;SDS011;40499;47.830;19.026;2022-09-09T13:00:23;0.20;;;0.10;;
52984;SDS011;40499;47.830;19.026;2022-09-09T13:02:56;0.20;;;0.00;;
52984;SDS011;40499;47.830;19.026;2022-09-09T13:07:49;0.35;;;0.00;;
52984;SDS011;40499;47.830;19.026;2022-09-09T13:10:19;0.35;;;0.10;;
52984;SDS011;40499;47.830;19.026;2022-09-09T13:12:48;0.17;;;0.08;;
52984;SDS011;40499;47.830;19.026;2022-09-09T13:15:16;0.55;;;0.03;;
52984;SDS011;40499;47.830;19.026;2022-09-09T13:18:21;0.20;;;0.10;;
52984;SDS011;40499;47.830;19.026;2022-09-09T13:20:44;0.10;;;0.00;;
52984;SDS011;40499;47.830;19.026;2022-09-09T13:23:12;0.20;;;0.00;;
52984;SDS011;40499;47.830;19.026;2022-09-09T13:25:37;0.10;;;0.10;;
52984;SDS011;40499;47.830;19.026;2022-09-09T13:28:04;0.10;;;0.00;;
52984;SDS011;40499;47.830;19.026;2022-09-09T13:30:43;0.75;;;0.10;;
52984;SDS011;40499;47.830;19.026;2022-09-09T13:33:22;0.32;;;0.20;;
52984;SDS011;40499;47.830;19.026;2022-09-09T13:35:49;2.50;;;0.28;;
52984;SDS011;40499;47.830;19.026;2022-09-09T13:38:15;0.28;;;0.08;;
52984;SDS011;40499;47.830;19.026;2022-09-09T13:41:03;0.20;;;0.10;;
52984;SDS011;40499;47.830;19.026;2022-09-09T13:43:34;0.15;;;0.00;;
52984;SDS011;40499;47.830;19.026;2022-09-09T13:46:22;0.22;;;0.10;;
52984;SDS011;40499;47.830;19.026;2022-09-09T13:48:59;0.10;;;0.00;;
52984;SDS011;40499;47.830;19.026;2022-09-09T13:51:31;0.93;;;0.10;;
52984;SDS011;40499;47.830;19.026;2022-09-09T13:53:57;0.50;;;0.10;;
52984;SDS011;40499;47.830;19.026;2022-09-09T13:56:24;0.50;;;0.10;;
52984;SDS011;40499;47.830;19.026;2022-09-09T13:58:49;0.20;;;0.10;;
52984;SDS011;40499;47.830;19.026;2022-09-09T14:01:14;1.40;;;0.00;;
52984;SDS011;40499;47.830;19.026;2022-09-09T14:03:40;0.10;;;0.10;;
52984;SDS011;40499;47.830;19.026;2022-09-09T14:06:06;0.10;;;0.00;;
52984;SDS011;40499;47.830;19.026;2022-09-09T14:08:32;0.20;;;0.00;;
52984;SDS011;40499;47.830;19.026;2022-09-09T14:11:02;0.52;;;0.10;;
52984;SDS011;40499;47.830;19.026;2022-09-09T14:13:28;0.20;;;0.00;;
52984;SDS011;40499;47.830;19.026;2022-09-09T14:15:53;1.35;;;0.10;;
52984;SDS011;40499;47.830;19.026;2022-09-09T14:18:19;1.17;;;0.00;;
52984;SDS011;40499;47.830;19.026;2022-09-09T14:20:45;0.15;;;0.10;;
52984;SDS011;40499;47.830;19.026;2022-09-09T14:23:11;0.47;;;0.10;;
52984;SDS011;40499;47.830;19.026;2022-09-09T14:25:39;0.03;;;0.00;;
52984;SDS011;40499;47.830;19.026;2022-09-09T14:28:07;0.30;;;0.10;;
52984;SDS011;40499;47.830;19.026;2022-09-09T14:30:34;0.43;;;0.10;;
52984;SDS011;40499;47.830;19.026;2022-09-09T14:32:59;0.10;;;0.00;;
52984;SDS011;40499;47.830;19.026;2022-09-09T14:35:25;0.30;;;0.08;;
52984;SDS011;40499;47.830;19.026;2022-09-09T14:37:50;0.35;;;0.10;;
52984;SDS011;40499;47.830;19.026;2022-09-09T14:40:16;0.08;;;0.00;;
52984;SDS011;40499;47.830;19.026;2022-09-09T14:42:43;0.30;;;0.10;;
52984;SDS011;40499;47.830;19.026;2022-09-09T14:45:09;0.30;;;0.10;;
52984;SDS011;40499;47.830;19.026;2022-09-09T14:47:35;0.30;;;0.10;;
52984;SDS011;40499;47.830;19.026;2022-09-09T14:50:01;0.35;;;0.10;;
52984;SDS011;40499;47.830;19.026;2022-09-09T14:52:29;0.10;;;0.00;;
52984;SDS011;40499;47.830;19.026;2022-09-09T14:54:55;0.28;;;0.10;;
52984;SDS011;40499;47.830;19.026;2022-09-09T14:57:21;0.20;;;0.00;;
52984;SDS011;40499;47.830;19.026;2022-09-09T14:59:47;0.65;;;0.25;;
52984;SDS011;40499;47.830;19.026;2022-09-09T15:02:15;0.32;;;0.00;;
52984;SDS011;40499;47.830;19.026;2022-09-09T15:04:40;1.80;;;0.22;;
52984;SDS011;40499;47.830;19.026;2022-09-09T15:07:06;0.30;;;0.10;;
52984;SDS011;40499;47.830;19.026;2022-09-09T15:09:31;0.28;;;0.10;;
52984;SDS011;40499;47.830;19.026;2022-09-09T15:11:56;0.43;;;0.10;;
52984;SDS011;40499;47.830;19.026;2022-09-09T15:14:22;0.65;;;0.30;;
52984;SDS011;40499;47.830;19.026;2022-09-09T15:16:47;0.38;;;0.10;;
52984;SDS011;40499;47.830;19.026;2022-09-09T15:19:13;0.43;;;0.10;;
52984;SDS011;40499;47.830;19.026;2022-09-09T15:21:38;0.10;;;0.00;;
52984;SDS011;40499;47.830;19.026;2022-09-09T15:24:04;0.20;;;0.10;;
52984;SDS011;40499;47.830;19.026;2022-09-09T15:26:32;0.38;;;0.17;;
52984;SDS011;40499;47.830;19.026;2022-09-09T15:28:57;0.30;;;0.10;;
52984;SDS011;40499;47.830;19.026;2022-09-09T15:31:25;1.38;;;0.00;;
52984;SDS011;40499;47.830;19.026;2022-09-09T15:34:03;0.03;;;0.03;;
52984;SDS011;40499;47.830;19.026;2022-09-09T15:36:31;0.15;;;0.10;;
52984;SDS011;40499;47.830;19.026;2022-09-09T15:39:02;0.30;;;0.10;;
52984;SDS011;40499;47.830;19.026;2022-09-09T15:41:29;0.35;;;0.10;;
52984;SDS011;40499;47.830;19.026;2022-09-09T15:43:56;0.38;;;0.10;;
52984;SDS011;40499;47.830;19.026;2022-09-09T15:49:18;0.50;;;0.35;;
52984;SDS011;40499;47.830;19.026;2022-09-09T15:51:47;0.47;;;0.15;;
52984;SDS011;40499;47.830;19.026;2022-09-09T15:54:19;1.85;;;0.30;;
52984;SDS011;40499;47.830;19.026;2022-09-09T15:56:49;3.63;;;0.22;;
52984;SDS011;40499;47.830;19.026;2022-09-09T15:59:22;1.13;;;0.17;;
52984;SDS011;40499;47.830;19.026;2022-09-09T16:01:48;0.75;;;0.40;;
52984;SDS011;40499;47.830;19.026;2022-09-09T16:04:16;0.52;;;0.15;;
52984;SDS011;40499;47.830;19.026;2022-09-09T16:06:48;0.40;;;0.10;;
52984;SDS011;40499;47.830;19.026;2022-09-09T16:09:28;0.95;;;0.40;;
52984;SDS011;40499;47.830;19.026;2022-09-09T16:11:57;1.90;;;0.30;;
52984;SDS011;40499;47.830;19.026;2022-09-09T16:14:25;0.50;;;0.20;;
52984;SDS011;40499;47.830;19.026;2022-09-09T16:16:52;1.40;;;0.50;;
52984;SDS011;40499;47.830;19.026;2022-09-09T16:19:17;2.47;;;0.40;;
52984;SDS011;40499;47.830;19.026;2022-09-09T16:21:47;2.08;;;0.22;;
52984;SDS011;40499;47.830;19.026;2022-09-09T16:24:14;3.30;;;0.95;;
52984;SDS011;40499;47.830;19.026;2022-09-09T16:26:43;4.60;;;0.60;;
52984;SDS011;40499;47.830;19.026;2022-09-09T16:29:11;1.17;;;0.40;;
52984;SDS011;40499;47.830;19.026;2022-09-09T16:31:40;2.55;;;0.57;;
52984;SDS011;40499;47.830;19.026;2022-09-09T16:34:05;1.95;;;1.10;;
52984;SDS011;40499;47.830;19.026;2022-09-09T16:36:32;3.80;;;1.33;;
52984;SDS011;40499;47.830;19.026;2022-09-09T16:38:59;6.38;;;2.00;;
52984;SDS011;40499;47.830;19.026;2022-09-09T16:41:27;12.02;;;3.97;;
52984;SDS011;40499;47.830;19.026;2022-09-09T16:43:57;8.77;;;3.28;;
52984;SDS011;40499;47.830;19.026;2022-09-09T16:46:24;6.38;;;2.53;;
52984;SDS011;40499;47.830;19.026;2022-09-09T16:48:51;3.90;;;1.23;;
52984;SDS011;40499;47.830;19.026;2022-09-09T16:51:24;2.75;;;0.65;;
52984;SDS011;40499;47.830;19.026;2022-09-09T16:53:54;0.77;;;0.47;;
52984;SDS011;40499;47.830;19.026;2022-09-09T16:56:24;0.75;;;0.20;;
52984;SDS011;40499;47.830;19.026;2022-09-09T16:58:52;2.13;;;0.40;;
52984;SDS011;40499;47.830;19.026;2022-09-09T17:01:22;1.13;;;0.50;;
52984;SDS011;40499;47.830;19.026;2022-09-09T17:03:55;0.82;;;0.30;;
52984;SDS011;40499;47.830;19.026;2022-09-09T17:06:21;0.82;;;0.30;;
52984;SDS011;40499;47.830;19.026;2022-09-09T17:08:47;0.28;;;0.20;;
52984;SDS011;40499;47.830;19.026;2022-09-09T17:13:40;1.55;;;0.22;;
52984;SDS011;40499;47.830;19.026;2022-09-09T17:16:09;0.40;;;0.15;;
52984;SDS011;40499;47.830;19.026;2022-09-09T17:18:36;0.70;;;0.10;;
52984;SDS011;40499;47.830;19.026;2022-09-09T17:21:05;0.50;;;0.10;;
52984;SDS011;40499;47.830;19.026;2022-09-09T17:23:33;0.20;;;0.10;;
52984;SDS011;40499;47.830;19.026;2022-09-09T17:25:59;0.57;;;0.20;;
52984;SDS011;40499;47.830;19.026;2022-09-09T17:28:25;3.63;;;0.30;;
52984;SDS011;40499;47.830;19.026;2022-09-09T17:30:56;1.35;;;0.20;;
52984;SDS011;40499;47.830;19.026;2022-09-09T17:33:31;2.80;;;0.43;;
52984;SDS011;40499;47.830;19.026;2022-09-09T17:35:58;0.70;;;0.20;;
52984;SDS011;40499;47.830;19.026;2022-09-09T17:38:31;0.60;;;0.30;;
52984;SDS011;40499;47.830;19.026;2022-09-09T17:41:00;0.45;;;0.17;;
52984;SDS011;40499;47.830;19.026;2022-09-09T17:43:34;0.28;;;0.10;;
52984;SDS011;40499;47.830;19.026;2022-09-09T17:46:36;0.20;;;0.10;;
52984;SDS011;40499;47.830;19.026;2022-09-09T17:48:58;2.95;;;0.20;;